sensor_id;sensor_type;location;lat;lon;timestamp;pressure;altitude;pressure_sealevel;temperature;humidity
51195;BME280;37259;49.972;19.850;2022-07-04T00:00:29;98660;;;17.6;100
51195;BME280;37259;49.972;19.850;2022-07-04T00:01:29;98660;;;17.6;100
51195;BME280;37259;49.972;19.850;2022-07-04T00:02:29;98660;;;17.6;100
51195;BME280;37259;49.972;19.850;2022-07-04T00:03:29;98660;;;17.6;100
51195;BME280;37259;49.972;19.850;2022-07-04T00:04:29;98660;;;17.6;100
51195;BME280;37259;49.972;19.850;2022-07-04T00:05:29;98660;;;17.5;100
51195;BME280;37259;49.972;19.850;2022-07-04T00:06:29;98650;;;17.5;100
51195;BME280;37259;49.972;19.850;2022-07-04T00:07:29;98650;;;17.5;100
51195;BME280;37259;49.972;19.850;2022-07-04T00:08:29;98650;;;17.5;100
51195;BME280;37259;49.972;19.850;2022-07-04T00:09:29;98650;;;17.5;100
51195;BME280;37259;49.972;19.850;2022-07-04T00:10:29;98650;;;17.5;100
51195;BME280;37259;49.972;19.850;2022-07-04T00:11:29;98650;;;17.5;100
51195;BME280;37259;49.972;19.850;2022-07-04T00:12:29;98650;;;17.5;100
51195;BME280;37259;49.972;19.850;2022-07-04T00:13:29;98650;;;17.5;100
51195;BME280;37259;49.972;19.850;2022-07-04T00:14:29;98640;;;17.4;100
51195;BME280;37259;49.972;19.850;2022-07-04T00:15:29;98640;;;17.4;100
51195;BME280;37259;49.972;19.850;2022-07-04T00:16:29;98640;;;17.4;100
51195;BME280;37259;49.972;19.850;2022-07-04T00:17:29;98640;;;17.4;100
51195;BME280;37259;49.972;19.850;2022-07-04T00:18:29;98640;;;17.4;100
51195;BME280;37259;49.972;19.850;2022-07-04T00:19:29;98640;;;17.4;100
51195;BME280;37259;49.972;19.850;2022-07-04T00:20:29;98640;;;17.4;100
51195;BME280;37259;49.972;19.850;2022-07-04T00:21:29;98640;;;17.4;100
51195;BME280;37259;49.972;19.850;2022-07-04T00:22:29;98640;;;17.4;100
51195;BME280;37259;49.972;19.850;2022-07-04T00:23:29;98640;;;17.4;100
51195;BME280;37259;49.972;19.850;2022-07-04T00:24:29;98630;;;17.3;100
51195;BME280;37259;49.972;19.850;2022-07-04T00:25:29;98630;;;17.3;100
51195;BME280;37259;49.972;19.850;2022-07-04T00:26:29;98630;;;17.3;100
51195;BME280;37259;49.972;19.850;2022-07-04T00:27:29;98630;;;17.3;100
51195;BME280;37259;49.972;19.850;2022-07-04T00:28:29;98640;;;17.3;100
51195;BME280;37259;49.972;19.850;2022-07-04T00:29:29;98640;;;17.2;100
51195;BME280;37259;49.972;19.850;2022-07-04T00:30:28;98640;;;17.2;100
51195;BME280;37259;49.972;19.850;2022-07-04T00:31:29;98640;;;17.2;100
51195;BME280;37259;49.972;19.850;2022-07-04T00:32:29;98640;;;17.2;100
51195;BME280;37259;49.972;19.850;2022-07-04T00:33:29;98640;;;17.2;100
51195;BME280;37259;49.972;19.850;2022-07-04T00:34:29;98640;;;17.1;100
51195;BME280;37259;49.972;19.850;2022-07-04T00:35:29;98640;;;17.1;100
51195;BME280;37259;49.972;19.850;2022-07-04T00:36:29;98640;;;17.1;100
51195;BME280;37259;49.972;19.850;2022-07-04T00:37:29;98640;;;17.1;100
51195;BME280;37259;49.972;19.850;2022-07-04T00:38:29;98640;;;17;100
51195;BME280;37259;49.972;19.850;2022-07-04T00:39:29;98640;;;17;100
51195;BME280;37259;49.972;19.850;2022-07-04T00:40:29;98630;;;17;100
51195;BME280;37259;49.972;19.850;2022-07-04T00:41:29;98630;;;17;100
51195;BME280;37259;49.972;19.850;2022-07-04T00:42:29;98630;;;16.9;100
51195;BME280;37259;49.972;19.850;2022-07-04T00:43:29;98630;;;16.9;100
51195;BME280;37259;49.972;19.850;2022-07-04T00:44:29;98630;;;16.9;100
51195;BME280;37259;49.972;19.850;2022-07-04T00:45:29;98630;;;16.9;100
51195;BME280;37259;49.972;19.850;2022-07-04T00:46:29;98630;;;16.8;100
51195;BME280;37259;49.972;19.850;2022-07-04T00:47:29;98630;;;16.8;100
51195;BME280;37259;49.972;19.850;2022-07-04T00:48:29;98630;;;16.8;100
51195;BME280;37259;49.972;19.850;2022-07-04T00:49:29;98630;;;16.8;100
51195;BME280;37259;49.972;19.850;2022-07-04T00:50:29;98630;;;16.7;100
51195;BME280;37259;49.972;19.850;2022-07-04T00:51:29;98640;;;16.7;100
51195;BME280;37259;49.972;19.850;2022-07-04T00:52:29;98630;;;16.6;100
51195;BME280;37259;49.972;19.850;2022-07-04T00:53:29;98630;;;16.6;100
51195;BME280;37259;49.972;19.850;2022-07-04T00:54:29;98640;;;16.6;100
51195;BME280;37259;49.972;19.850;2022-07-04T00:55:29;98640;;;16.6;100
51195;BME280;37259;49.972;19.850;2022-07-04T00:56:29;98640;;;16.5;100
51195;BME280;37259;49.972;19.850;2022-07-04T00:57:29;98640;;;16.5;100
51195;BME280;37259;49.972;19.850;2022-07-04T00:58:29;98640;;;16.5;100
51195;BME280;37259;49.972;19.850;2022-07-04T00:59:29;98640;;;16.4;100
51195;BME280;37259;49.972;19.850;2022-07-04T01:00:29;98640;;;16.4;100
51195;BME280;37259;49.972;19.850;2022-07-04T01:01:29;98650;;;16.4;100
51195;BME280;37259;49.972;19.850;2022-07-04T01:02:29;98650;;;16.4;100
51195;BME280;37259;49.972;19.850;2022-07-04T01:03:29;98650;;;16.4;100
51195;BME280;37259;49.972;19.850;2022-07-04T01:04:29;98650;;;16.4;100
51195;BME280;37259;49.972;19.850;2022-07-04T01:05:29;98650;;;16.4;100
51195;BME280;37259;49.972;19.850;2022-07-04T01:06:29;98650;;;16.4;100
51195;BME280;37259;49.972;19.850;2022-07-04T01:07:29;98640;;;16.3;100
51195;BME280;37259;49.972;19.850;2022-07-04T01:08:29;98640;;;16;100
51195;BME280;37259;49.972;19.850;2022-07-04T01:09:29;98640;;;16;100
51195;BME280;37259;49.972;19.850;2022-07-04T01:10:29;98640;;;16;100
51195;BME280;37259;49.972;19.850;2022-07-04T01:11:29;98640;;;16;100
51195;BME280;37259;49.972;19.850;2022-07-04T01:12:29;98630;;;16.1;100
51195;BME280;37259;49.972;19.850;2022-07-04T01:13:29;98630;;;16.1;100
51195;BME280;37259;49.972;19.850;2022-07-04T01:14:29;98630;;;16.1;100
51195;BME280;37259;49.972;19.850;2022-07-04T01:15:29;98630;;;16.1;100
51195;BME280;37259;49.972;19.850;2022-07-04T01:16:29;98630;;;16.1;100
51195;BME280;37259;49.972;19.850;2022-07-04T01:17:29;98630;;;16.1;100
51195;BME280;37259;49.972;19.850;2022-07-04T01:18:29;98630;;;16.1;100
51195;BME280;37259;49.972;19.850;2022-07-04T01:19:29;98630;;;16.1;100
51195;BME280;37259;49.972;19.850;2022-07-04T01:20:33;98630;;;16;100
51195;BME280;37259;49.972;19.850;2022-07-04T01:21:29;98630;;;16;100
51195;BME280;37259;49.972;19.850;2022-07-04T01:22:29;98630;;;16;100
51195;BME280;37259;49.972;19.850;2022-07-04T01:23:29;98630;;;16;100
51195;BME280;37259;49.972;19.850;2022-07-04T01:24:29;98630;;;16;100
51195;BME280;37259;49.972;19.850;2022-07-04T01:25:29;98630;;;16;100
51195;BME280;37259;49.972;19.850;2022-07-04T01:26:29;98630;;;16;100
51195;BME280;37259;49.972;19.850;2022-07-04T01:27:29;98630;;;16;100
51195;BME280;37259;49.972;19.850;2022-07-04T01:28:29;98630;;;15.9;100
51195;BME280;37259;49.972;19.850;2022-07-04T01:29:29;98630;;;15.9;100
51195;BME280;37259;49.972;19.850;2022-07-04T01:30:29;98630;;;15.9;100
51195;BME280;37259;49.972;19.850;2022-07-04T01:31:29;98620;;;15.9;100
51195;BME280;37259;49.972;19.850;2022-07-04T01:32:29;98620;;;15.8;100
51195;BME280;37259;49.972;19.850;2022-07-04T01:33:29;98620;;;15.8;100
51195;BME280;37259;49.972;19.850;2022-07-04T01:34:29;98620;;;15.8;100
51195;BME280;37259;49.972;19.850;2022-07-04T01:35:29;98620;;;15.8;100
51195;BME280;37259;49.972;19.850;2022-07-04T01:36:29;98620;;;15.8;100
51195;BME280;37259;49.972;19.850;2022-07-04T01:37:29;98620;;;15.8;100
51195;BME280;37259;49.972;19.850;2022-07-04T01:38:29;98620;;;15.8;100
51195;BME280;37259;49.972;19.850;2022-07-04T01:39:29;98620;;;15.8;100
51195;BME280;37259;49.972;19.850;2022-07-04T01:40:29;98620;;;15.7;100
51195;BME280;37259;49.972;19.850;2022-07-04T01:41:32;98620;;;15.7;100
51195;BME280;37259;49.972;19.850;2022-07-04T01:42:29;98630;;;15.7;100
51195;BME280;37259;49.972;19.850;2022-07-04T01:43:29;98630;;;15.7;100
51195;BME280;37259;49.972;19.850;2022-07-04T01:44:29;98630;;;15.7;100
51195;BME280;37259;49.972;19.850;2022-07-04T01:45:29;98630;;;15.6;100
51195;BME280;37259;49.972;19.850;2022-07-04T01:46:29;98630;;;15.6;100
51195;BME280;37259;49.972;19.850;2022-07-04T01:47:29;98630;;;15.6;100
51195;BME280;37259;49.972;19.850;2022-07-04T01:48:29;98630;;;15.6;100
51195;BME280;37259;49.972;19.850;2022-07-04T01:49:29;98630;;;15.6;100
51195;BME280;37259;49.972;19.850;2022-07-04T01:50:29;98640;;;15.6;100
51195;BME280;37259;49.972;19.850;2022-07-04T01:51:29;98640;;;15.6;100
51195;BME280;37259;49.972;19.850;2022-07-04T01:52:29;98630;;;15.6;100
51195;BME280;37259;49.972;19.850;2022-07-04T01:53:29;98630;;;15.6;100
51195;BME280;37259;49.972;19.850;2022-07-04T01:54:29;98630;;;15.6;100
51195;BME280;37259;49.972;19.850;2022-07-04T01:55:29;98630;;;15.5;100
51195;BME280;37259;49.972;19.850;2022-07-04T01:56:29;98630;;;15.5;100
51195;BME280;37259;49.972;19.850;2022-07-04T01:57:29;98630;;;15.5;100
51195;BME280;37259;49.972;19.850;2022-07-04T01:58:29;98630;;;15.5;100
51195;BME280;37259;49.972;19.850;2022-07-04T01:59:29;98630;;;15.5;100
51195;BME280;37259;49.972;19.850;2022-07-04T02:00:29;98630;;;15.5;100
51195;BME280;37259;49.972;19.850;2022-07-04T02:01:29;98630;;;15.5;100
51195;BME280;37259;49.972;19.850;2022-07-04T02:02:29;98630;;;15.5;100
51195;BME280;37259;49.972;19.850;2022-07-04T02:03:29;98630;;;15.4;100
51195;BME280;37259;49.972;19.850;2022-07-04T02:04:29;98630;;;15.4;100
51195;BME280;37259;49.972;19.850;2022-07-04T02:05:29;98630;;;15.4;100
51195;BME280;37259;49.972;19.850;2022-07-04T02:06:29;98630;;;15.4;100
51195;BME280;37259;49.972;19.850;2022-07-04T02:07:29;98630;;;15.4;100
51195;BME280;37259;49.972;19.850;2022-07-04T02:08:29;98630;;;15.4;100
51195;BME280;37259;49.972;19.850;2022-07-04T02:09:29;98630;;;15.4;100
51195;BME280;37259;49.972;19.850;2022-07-04T02:10:29;98630;;;15.4;100
51195;BME280;37259;49.972;19.850;2022-07-04T02:11:29;98640;;;15.4;100
51195;BME280;37259;49.972;19.850;2022-07-04T02:12:29;98640;;;15.3;100
51195;BME280;37259;49.972;19.850;2022-07-04T02:13:29;98640;;;15.3;100
51195;BME280;37259;49.972;19.850;2022-07-04T02:14:29;98640;;;15.3;100
51195;BME280;37259;49.972;19.850;2022-07-04T02:15:29;98640;;;15.2;100
51195;BME280;37259;49.972;19.850;2022-07-04T02:16:29;98640;;;15.2;100
51195;BME280;37259;49.972;19.850;2022-07-04T02:17:29;98640;;;15.3;100
51195;BME280;37259;49.972;19.850;2022-07-04T02:18:29;98640;;;15.2;100
51195;BME280;37259;49.972;19.850;2022-07-04T02:19:29;98650;;;15.2;100
51195;BME280;37259;49.972;19.850;2022-07-04T02:20:29;98640;;;15.2;100
51195;BME280;37259;49.972;19.850;2022-07-04T02:21:29;98640;;;15.2;100
51195;BME280;37259;49.972;19.850;2022-07-04T02:22:29;98640;;;15.2;100
51195;BME280;37259;49.972;19.850;2022-07-04T02:23:29;98640;;;15.2;100
51195;BME280;37259;49.972;19.850;2022-07-04T02:24:29;98640;;;15.2;100
51195;BME280;37259;49.972;19.850;2022-07-04T02:25:29;98650;;;15.2;100
51195;BME280;37259;49.972;19.850;2022-07-04T02:26:29;98650;;;15.2;100
51195;BME280;37259;49.972;19.850;2022-07-04T02:27:29;98640;;;15.2;100
51195;BME280;37259;49.972;19.850;2022-07-04T02:28:29;98640;;;15.2;100
51195;BME280;37259;49.972;19.850;2022-07-04T02:29:29;98650;;;15.2;100
51195;BME280;37259;49.972;19.850;2022-07-04T02:30:29;98650;;;15.2;100
51195;BME280;37259;49.972;19.850;2022-07-04T02:31:29;98650;;;15.2;100
51195;BME280;37259;49.972;19.850;2022-07-04T02:32:29;98650;;;15.1;100
51195;BME280;37259;49.972;19.850;2022-07-04T02:33:29;98650;;;15.1;100
51195;BME280;37259;49.972;19.850;2022-07-04T02:34:29;98650;;;15.1;100
51195;BME280;37259;49.972;19.850;2022-07-04T02:35:29;98650;;;15.1;100
51195;BME280;37259;49.972;19.850;2022-07-04T02:36:29;98650;;;15.1;100
51195;BME280;37259;49.972;19.850;2022-07-04T02:37:29;98650;;;15.1;100
51195;BME280;37259;49.972;19.850;2022-07-04T02:38:29;98650;;;15.1;100
51195;BME280;37259;49.972;19.850;2022-07-04T02:39:29;98650;;;15.1;100
51195;BME280;37259;49.972;19.850;2022-07-04T02:40:29;98650;;;15.1;100
51195;BME280;37259;49.972;19.850;2022-07-04T02:41:29;98650;;;15.1;100
51195;BME280;37259;49.972;19.850;2022-07-04T02:42:29;98660;;;15.1;100
51195;BME280;37259;49.972;19.850;2022-07-04T02:43:29;98660;;;15.1;100
51195;BME280;37259;49.972;19.850;2022-07-04T02:44:29;98660;;;15.1;100
51195;BME280;37259;49.972;19.850;2022-07-04T02:45:29;98660;;;15.1;100
51195;BME280;37259;49.972;19.850;2022-07-04T02:46:29;98660;;;14.9;100
51195;BME280;37259;49.972;19.850;2022-07-04T02:47:29;98660;;;14.9;100
51195;BME280;37259;49.972;19.850;2022-07-04T02:48:29;98660;;;14.9;100
51195;BME280;37259;49.972;19.850;2022-07-04T02:49:29;98660;;;14.9;100
51195;BME280;37259;49.972;19.850;2022-07-04T02:50:29;98660;;;14.9;100
51195;BME280;37259;49.972;19.850;2022-07-04T02:51:29;98660;;;14.9;100
51195;BME280;37259;49.972;19.850;2022-07-04T02:52:29;98660;;;14.9;100
51195;BME280;37259;49.972;19.850;2022-07-04T02:53:29;98660;;;15;100
51195;BME280;37259;49.972;19.850;2022-07-04T02:54:29;98660;;;15;100
51195;BME280;37259;49.972;19.850;2022-07-04T02:55:29;98660;;;15;100
51195;BME280;37259;49.972;19.850;2022-07-04T02:56:29;98660;;;15;100
51195;BME280;37259;49.972;19.850;2022-07-04T02:57:29;98660;;;15;100
51195;BME280;37259;49.972;19.850;2022-07-04T02:58:29;98660;;;15;100
51195;BME280;37259;49.972;19.850;2022-07-04T02:59:29;98660;;;15;100
51195;BME280;37259;49.972;19.850;2022-07-04T03:00:29;98660;;;15;100
51195;BME280;37259;49.972;19.850;2022-07-04T03:01:29;98660;;;15;100
51195;BME280;37259;49.972;19.850;2022-07-04T03:02:29;98660;;;15;100
51195;BME280;37259;49.972;19.850;2022-07-04T03:03:29;98660;;;15;100
51195;BME280;37259;49.972;19.850;2022-07-04T03:04:29;98660;;;15;100
51195;BME280;37259;49.972;19.850;2022-07-04T03:05:29;98650;;;15.1;100
51195;BME280;37259;49.972;19.850;2022-07-04T03:06:29;98660;;;15.1;100
51195;BME280;37259;49.972;19.850;2022-07-04T03:07:29;98660;;;15.1;100
51195;BME280;37259;49.972;19.850;2022-07-04T03:08:29;98660;;;15.1;100
51195;BME280;37259;49.972;19.850;2022-07-04T03:09:29;98660;;;15.1;100
51195;BME280;37259;49.972;19.850;2022-07-04T03:10:29;98660;;;15.1;100
51195;BME280;37259;49.972;19.850;2022-07-04T03:11:29;98660;;;15;100
51195;BME280;37259;49.972;19.850;2022-07-04T03:12:29;98660;;;15;100
51195;BME280;37259;49.972;19.850;2022-07-04T03:13:29;98660;;;15.1;100
51195;BME280;37259;49.972;19.850;2022-07-04T03:14:29;98660;;;15.1;100
51195;BME280;37259;49.972;19.850;2022-07-04T03:15:29;98650;;;15.1;100
51195;BME280;37259;49.972;19.850;2022-07-04T03:16:29;98650;;;15.1;100
51195;BME280;37259;49.972;19.850;2022-07-04T03:17:29;98650;;;15.1;100
51195;BME280;37259;49.972;19.850;2022-07-04T03:18:29;98650;;;15.2;100
51195;BME280;37259;49.972;19.850;2022-07-04T03:19:29;98650;;;15.2;100
51195;BME280;37259;49.972;19.850;2022-07-04T03:20:29;98650;;;15;100
51195;BME280;37259;49.972;19.850;2022-07-04T03:21:29;98650;;;15;100
51195;BME280;37259;49.972;19.850;2022-07-04T03:22:29;98650;;;14.9;100
51195;BME280;37259;49.972;19.850;2022-07-04T03:23:29;98650;;;14.9;100
51195;BME280;37259;49.972;19.850;2022-07-04T03:24:29;98650;;;15;100
51195;BME280;37259;49.972;19.850;2022-07-04T03:25:29;98660;;;15.1;100
51195;BME280;37259;49.972;19.850;2022-07-04T03:26:29;98660;;;15.1;100
51195;BME280;37259;49.972;19.850;2022-07-04T03:27:29;98650;;;15.2;100
51195;BME280;37259;49.972;19.850;2022-07-04T03:28:29;98650;;;15.3;100
51195;BME280;37259;49.972;19.850;2022-07-04T03:29:29;98650;;;15.3;100
51195;BME280;37259;49.972;19.850;2022-07-04T03:30:29;98650;;;15.3;100
51195;BME280;37259;49.972;19.850;2022-07-04T03:31:29;98650;;;15.4;100
51195;BME280;37259;49.972;19.850;2022-07-04T03:32:29;98660;;;15.4;100
51195;BME280;37259;49.972;19.850;2022-07-04T03:33:29;98660;;;15.4;100
51195;BME280;37259;49.972;19.850;2022-07-04T03:34:29;98660;;;15.4;100
51195;BME280;37259;49.972;19.850;2022-07-04T03:35:29;98660;;;15.5;100
51195;BME280;37259;49.972;19.850;2022-07-04T03:36:29;98660;;;15.5;100
51195;BME280;37259;49.972;19.850;2022-07-04T03:37:29;98660;;;15.5;100
51195;BME280;37259;49.972;19.850;2022-07-04T03:38:29;98660;;;15.6;100
51195;BME280;37259;49.972;19.850;2022-07-04T03:39:29;98660;;;15.6;100
51195;BME280;37259;49.972;19.850;2022-07-04T03:40:29;98650;;;15.7;100
51195;BME280;37259;49.972;19.850;2022-07-04T03:41:29;98650;;;15.8;100
51195;BME280;37259;49.972;19.850;2022-07-04T03:42:29;98660;;;15.8;100
51195;BME280;37259;49.972;19.850;2022-07-04T03:43:29;98660;;;15.8;100
51195;BME280;37259;49.972;19.850;2022-07-04T03:44:29;98650;;;15.9;100
51195;BME280;37259;49.972;19.850;2022-07-04T03:45:29;98650;;;15.9;100
51195;BME280;37259;49.972;19.850;2022-07-04T03:46:29;98660;;;15.9;100
51195;BME280;37259;49.972;19.850;2022-07-04T03:47:29;98650;;;16;100
51195;BME280;37259;49.972;19.850;2022-07-04T03:48:29;98650;;;16;100
51195;BME280;37259;49.972;19.850;2022-07-04T03:49:29;98650;;;16;100
51195;BME280;37259;49.972;19.850;2022-07-04T03:50:29;98650;;;16;100
51195;BME280;37259;49.972;19.850;2022-07-04T03:51:29;98650;;;16;100
51195;BME280;37259;49.972;19.850;2022-07-04T03:52:29;98650;;;16.1;100
51195;BME280;37259;49.972;19.850;2022-07-04T03:53:29;98650;;;16.1;100
51195;BME280;37259;49.972;19.850;2022-07-04T03:54:29;98650;;;16;100
51195;BME280;37259;49.972;19.850;2022-07-04T03:55:29;98650;;;16;100
51195;BME280;37259;49.972;19.850;2022-07-04T03:56:29;98660;;;16.1;100
51195;BME280;37259;49.972;19.850;2022-07-04T03:57:29;98660;;;16.1;100
51195;BME280;37259;49.972;19.850;2022-07-04T03:58:29;98650;;;16.1;100
51195;BME280;37259;49.972;19.850;2022-07-04T03:59:29;98660;;;16.2;100
51195;BME280;37259;49.972;19.850;2022-07-04T04:00:29;98660;;;16.2;100
51195;BME280;37259;49.972;19.850;2022-07-04T04:01:29;98660;;;16.3;100
51195;BME280;37259;49.972;19.850;2022-07-04T04:02:29;98660;;;16.3;100
51195;BME280;37259;49.972;19.850;2022-07-04T04:03:29;98660;;;16.3;100
51195;BME280;37259;49.972;19.850;2022-07-04T04:04:29;98660;;;16.4;100
51195;BME280;37259;49.972;19.850;2022-07-04T04:05:29;98660;;;16.4;100
51195;BME280;37259;49.972;19.850;2022-07-04T04:06:29;98670;;;16.4;100
51195;BME280;37259;49.972;19.850;2022-07-04T04:07:29;98670;;;16.4;100
51195;BME280;37259;49.972;19.850;2022-07-04T04:08:29;98670;;;16.4;100
51195;BME280;37259;49.972;19.850;2022-07-04T04:09:29;98670;;;16.4;100
51195;BME280;37259;49.972;19.850;2022-07-04T04:10:29;98680;;;16.4;100
51195;BME280;37259;49.972;19.850;2022-07-04T04:11:29;98680;;;16.4;100
51195;BME280;37259;49.972;19.850;2022-07-04T04:12:29;98680;;;16.5;100
51195;BME280;37259;49.972;19.850;2022-07-04T04:13:29;98680;;;16.5;100
51195;BME280;37259;49.972;19.850;2022-07-04T04:14:29;98680;;;16.6;100
51195;BME280;37259;49.972;19.850;2022-07-04T04:15:29;98680;;;16.6;100
51195;BME280;37259;49.972;19.850;2022-07-04T04:16:29;98680;;;16.6;100
51195;BME280;37259;49.972;19.850;2022-07-04T04:17:29;98680;;;16.7;100
51195;BME280;37259;49.972;19.850;2022-07-04T04:18:29;98680;;;16.7;100
51195;BME280;37259;49.972;19.850;2022-07-04T04:19:29;98670;;;16.8;100
51195;BME280;37259;49.972;19.850;2022-07-04T04:20:29;98670;;;16.8;100
51195;BME280;37259;49.972;19.850;2022-07-04T04:21:29;98670;;;16.8;100
51195;BME280;37259;49.972;19.850;2022-07-04T04:22:29;98670;;;16.8;100
51195;BME280;37259;49.972;19.850;2022-07-04T04:23:29;98670;;;16.9;100
51195;BME280;37259;49.972;19.850;2022-07-04T04:24:29;98670;;;17;100
51195;BME280;37259;49.972;19.850;2022-07-04T04:25:29;98670;;;17;100
51195;BME280;37259;49.972;19.850;2022-07-04T04:26:29;98670;;;17.1;100
51195;BME280;37259;49.972;19.850;2022-07-04T04:27:29;98670;;;17.1;100
51195;BME280;37259;49.972;19.850;2022-07-04T04:28:29;98670;;;17.2;100
51195;BME280;37259;49.972;19.850;2022-07-04T04:29:29;98670;;;17.2;100
51195;BME280;37259;49.972;19.850;2022-07-04T04:30:29;98670;;;17.3;100
51195;BME280;37259;49.972;19.850;2022-07-04T04:31:29;98670;;;17.3;100
51195;BME280;37259;49.972;19.850;2022-07-04T04:32:29;98670;;;17.3;100
51195;BME280;37259;49.972;19.850;2022-07-04T04:33:29;98680;;;17.4;100
51195;BME280;37259;49.972;19.850;2022-07-04T04:34:29;98680;;;17.4;100
51195;BME280;37259;49.972;19.850;2022-07-04T04:35:29;98680;;;17.5;100
51195;BME280;37259;49.972;19.850;2022-07-04T04:36:29;98680;;;17.6;100
51195;BME280;37259;49.972;19.850;2022-07-04T04:37:29;98680;;;17.6;100
51195;BME280;37259;49.972;19.850;2022-07-04T04:38:29;98680;;;17.7;100
51195;BME280;37259;49.972;19.850;2022-07-04T04:39:29;98680;;;17.7;100
51195;BME280;37259;49.972;19.850;2022-07-04T04:40:29;98670;;;17.7;100
51195;BME280;37259;49.972;19.850;2022-07-04T04:41:29;98670;;;17.8;100
51195;BME280;37259;49.972;19.850;2022-07-04T04:42:29;98670;;;17.8;100
51195;BME280;37259;49.972;19.850;2022-07-04T04:43:29;98680;;;17.9;100
51195;BME280;37259;49.972;19.850;2022-07-04T04:44:29;98680;;;17.9;100
51195;BME280;37259;49.972;19.850;2022-07-04T04:45:29;98680;;;17.9;100
51195;BME280;37259;49.972;19.850;2022-07-04T04:46:29;98680;;;18;100
51195;BME280;37259;49.972;19.850;2022-07-04T04:47:29;98680;;;18;100
51195;BME280;37259;49.972;19.850;2022-07-04T04:48:29;98680;;;18.1;100
51195;BME280;37259;49.972;19.850;2022-07-04T04:49:29;98680;;;18.1;100
51195;BME280;37259;49.972;19.850;2022-07-04T04:50:29;98680;;;18.2;100
51195;BME280;37259;49.972;19.850;2022-07-04T04:51:29;98680;;;18.3;100
51195;BME280;37259;49.972;19.850;2022-07-04T04:52:29;98680;;;18.3;100
51195;BME280;37259;49.972;19.850;2022-07-04T04:53:29;98680;;;18.3;100
51195;BME280;37259;49.972;19.850;2022-07-04T04:54:29;98670;;;18.5;100
51195;BME280;37259;49.972;19.850;2022-07-04T04:55:29;98670;;;18.5;100
51195;BME280;37259;49.972;19.850;2022-07-04T04:56:29;98670;;;18.5;100
51195;BME280;37259;49.972;19.850;2022-07-04T04:57:29;98670;;;18.5;100
51195;BME280;37259;49.972;19.850;2022-07-04T04:58:29;98670;;;18.6;100
51195;BME280;37259;49.972;19.850;2022-07-04T04:59:29;98670;;;18.7;100
51195;BME280;37259;49.972;19.850;2022-07-04T05:00:29;98670;;;18.7;100
51195;BME280;37259;49.972;19.850;2022-07-04T05:01:29;98670;;;18.8;100
51195;BME280;37259;49.972;19.850;2022-07-04T05:02:29;98670;;;18.8;100
51195;BME280;37259;49.972;19.850;2022-07-04T05:03:29;98670;;;18.8;100
51195;BME280;37259;49.972;19.850;2022-07-04T05:04:29;98670;;;18.8;100
51195;BME280;37259;49.972;19.850;2022-07-04T05:05:29;98670;;;18.8;100
51195;BME280;37259;49.972;19.850;2022-07-04T05:06:29;98670;;;19;100
51195;BME280;37259;49.972;19.850;2022-07-04T05:07:29;98670;;;19;100
51195;BME280;37259;49.972;19.850;2022-07-04T05:08:29;98670;;;19.1;100
51195;BME280;37259;49.972;19.850;2022-07-04T05:09:29;98660;;;19.1;100
51195;BME280;37259;49.972;19.850;2022-07-04T05:10:29;98660;;;19.1;100
51195;BME280;37259;49.972;19.850;2022-07-04T05:11:29;98660;;;19.3;100
51195;BME280;37259;49.972;19.850;2022-07-04T05:12:29;98660;;;19.3;100
51195;BME280;37259;49.972;19.850;2022-07-04T05:13:29;98660;;;19.3;100
51195;BME280;37259;49.972;19.850;2022-07-04T05:14:29;98660;;;19.3;100
51195;BME280;37259;49.972;19.850;2022-07-04T05:15:29;98660;;;19.4;100
51195;BME280;37259;49.972;19.850;2022-07-04T05:16:29;98660;;;19.4;100
51195;BME280;37259;49.972;19.850;2022-07-04T05:17:29;98660;;;19.5;100
51195;BME280;37259;49.972;19.850;2022-07-04T05:18:29;98670;;;19.6;100
51195;BME280;37259;49.972;19.850;2022-07-04T05:19:29;98670;;;19.6;100
51195;BME280;37259;49.972;19.850;2022-07-04T05:20:29;98670;;;19.6;100
51195;BME280;37259;49.972;19.850;2022-07-04T05:21:29;98670;;;19.6;100
51195;BME280;37259;49.972;19.850;2022-07-04T05:22:29;98670;;;19.6;100
51195;BME280;37259;49.972;19.850;2022-07-04T05:23:29;98680;;;19.7;100
51195;BME280;37259;49.972;19.850;2022-07-04T05:24:29;98680;;;19.7;100
51195;BME280;37259;49.972;19.850;2022-07-04T05:25:29;98680;;;19.8;100
51195;BME280;37259;49.972;19.850;2022-07-04T05:26:29;98680;;;19.8;100
51195;BME280;37259;49.972;19.850;2022-07-04T05:27:29;98690;;;19.8;100
51195;BME280;37259;49.972;19.850;2022-07-04T05:28:29;98690;;;19.7;100
51195;BME280;37259;49.972;19.850;2022-07-04T05:29:29;98690;;;19.7;100
51195;BME280;37259;49.972;19.850;2022-07-04T05:30:29;98690;;;19.8;100
51195;BME280;37259;49.972;19.850;2022-07-04T05:31:29;98690;;;19.8;100
51195;BME280;37259;49.972;19.850;2022-07-04T05:32:29;98690;;;19.8;100
51195;BME280;37259;49.972;19.850;2022-07-04T05:33:29;98690;;;20;100
51195;BME280;37259;49.972;19.850;2022-07-04T05:34:29;98690;;;20;100
51195;BME280;37259;49.972;19.850;2022-07-04T05:35:29;98690;;;20.1;100
51195;BME280;37259;49.972;19.850;2022-07-04T05:36:29;98690;;;20;100
51195;BME280;37259;49.972;19.850;2022-07-04T05:37:29;98690;;;20;100
51195;BME280;37259;49.972;19.850;2022-07-04T05:38:29;98690;;;20.2;100
51195;BME280;37259;49.972;19.850;2022-07-04T05:39:29;98690;;;20.2;100
51195;BME280;37259;49.972;19.850;2022-07-04T05:40:29;98690;;;20.3;100
51195;BME280;37259;49.972;19.850;2022-07-04T05:41:29;98690;;;20.2;100